Weather observations for the past three days for
Aitkin Municipal Airport - Steve Kurtz Field
Metric (Imperial)
Date Time (cdt) Wind (kph) Vis. (km) Weather Sky Cond. Temperature (ºC) Relative Humidity Wind Chill (°C) Heat Index (°C) Pressure Precipitation (cm)
Air Dwpt 6 hour altimeter (cm) sea level (mb) 1 hr 3 hr 6 hr
Max. Min.
10 11:15 N 13 G 28 16.09 Partly Cloudy SCT045 8 -5 40% 6 76.58 0.0
10 10:55 NW 19 G 28 16.09 Mostly Cloudy BKN045 7 -4 46% 4 76.58 0.0
10 10:35 N 19 16.09 Partly Cloudy SCT045 7 -4 46% 4 76.58 0.0
10 10:15 NW 19 G 28 16.09 Fair CLR 6 -4 49% 3 76.58 0.0
10 09:55 N 15 16.09 Partly Cloudy SCT038 5 -4 53% 2 76.58 0.0
10 09:35 NW 17 16.09 Mostly Cloudy BKN036 BKN042 5 -3 57% 2 76.56 0.0
10 09:16 N 17 G 26 16.09 Partly Cloudy SCT036 SCT043 6 -3 53% 3 76.56 0.0
10 08:55 N 19 16.09 Fair CLR 6 -3 53% 3 76.56 0.0
10 08:35 N 17 G 28 16.09 Fair CLR 5 -3 57% 2 76.53 0.0
10 08:15 N 19 G 30 16.09 Fair CLR 5 -3 57% 2 76.53 0.0
10 07:55 NW 15 16.09 Fair CLR 4 -3 61% 1 76.5 0.0
10 07:35 N 17 G 26 16.09 Fair CLR 4 -3 61% 1 76.48 0.0
10 07:15 N 9 16.09 Fair CLR 4 -1 70% 2 76.48 0.0
10 06:56 NW 11 16.09 Fair CLR 4 -1 70% 2 76.43 0.0
10 06:35 Calm 16.09 Fair CLR 4 -2 65% 76.4 0.0
10 06:15 NW 7 16.09 Fair CLR 3 -2 70% 1 76.4 0.0
10 05:55 W 6 16.09 Fair CLR 3 -1 75% 76.38 0.0
10 05:35 NW 6 16.09 Fair CLR 3 -1 75% 76.35 0.0
10 05:15 NW 7 16.09 Fair CLR 3 -1 75% 1 76.33 0.0
10 04:55 NW 9 16.09 Partly Cloudy SCT100 4 -1 70% 2 76.3 0.0
10 04:36 NW 7 16.09 Partly Cloudy SCT100 4 -1 70% 2 76.3 0.0
10 04:15 W 6 16.09 Partly Cloudy SCT100 3 -1 75% 76.28 0.0
10 03:55 Calm 16.09 Mostly Cloudy BKN100 4 -1 70% 76.25 0.0
10 03:35 NW 6 16.09 Mostly Cloudy SCT080 BKN100 4 -1 70% 76.23 0.0
10 03:15 NW 6 16.09 Partly Cloudy SCT080 SCT100 5 0 70% 76.23 0.0
10 02:55 NW 6 16.09 Mostly Cloudy BKN100 5 0 70% 76.2 0.0
10 02:35 NW 7 16.09 Overcast OVC100 6 0 66% 5 76.2 0.0
10 02:16 NW 11 16.09 Mostly Cloudy SCT037 SCT055 BKN085 6 0 66% 4 76.2 0.0
10 01:55 NW 17 G 33 16.09 Overcast SCT045 BKN075 OVC110 6 0 66% 3 76.2 0.0
10 01:35 N 11 16.09 Overcast SCT080 OVC110 6 -1 61% 4 76.17 0.0
10 01:15 N 7 16.09 Mostly Cloudy SCT080 SCT085 BKN110 5 -2 61% 4 76.17 0.0
10 00:55 Calm 16.09 Mostly Cloudy BKN110 5 -2 61% 76.15 0.0
10 00:35 N 9 16.09 Mostly Cloudy BKN110 3 -3 65% 1 76.15 0.0
10 00:15 Calm 16.09 Partly Cloudy SCT110 1 -3 75% 76.12 0.0
09 23:56 Calm 16.09 Fair CLR 1 -1 87% 76.12 0.0
09 23:35 Calm 16.09 Mostly Cloudy BKN110 2 0 87% 76.12 0.0
09 23:15 Calm 16.09 Overcast OVC100 3 -1 75% 76.1 0.0
09 22:55 Calm 16.09 Mostly Cloudy BKN100 2 -2 75% 76.1 0.0
09 22:35 Calm 16.09 Mostly Cloudy BKN100 3 -3 65% 76.1 0.0
09 22:15 Calm 16.09 Partly Cloudy SCT110 4 -4 56% 76.07 0.0
09 21:55 Calm 16.09 Fair CLR 7 -5 43% 76.07 0.0
09 21:36 NW 6 16.09 Partly Cloudy SCT090 8 -5 40% 76.05 0.0
09 21:15 NW 9 16.09 Partly Cloudy SCT090 8 -5 40% 7 76.05 0.0
09 20:55 NW 9 16.09 Mostly Cloudy BKN090 9 -5 37% 8 76.02 0.0
09 20:35 NW 13 16.09 Mostly Cloudy BKN090 9 -5 37% 7 76 0.0
09 20:15 NW 13 G 26 16.09 Fair CLR 9 -6 34% 7 75.97 0.0
09 19:55 N 15 G 28 16.09 Fair CLR 10 -6 32% 8 75.95 0.0
09 19:35 NW 17 G 28 16.09 Partly Cloudy SCT090 11 -6 30% 75.95 0.0
09 19:16 NW 22 G 35 16.09 Partly Cloudy SCT090 11 -6 30% 75.92 0.0
09 18:55 N 19 G 31 16.09 Partly Cloudy SCT070 SCT090 12 -5 30% 75.9 0.0
09 18:35 N 19 G 35 16.09 Mostly Cloudy BKN080 12 -6 28% 75.87 0.0
09 18:15 NW 22 G 33 16.09 Mostly Cloudy BKN080 BKN085 11 -6 30% 75.84 0.0
09 17:55 N 20 G 39 16.09 Mostly Cloudy SCT080 BKN085 13 -6 26% 75.84 0.0
09 17:35 NW 17 G 43 16.09 Partly Cloudy SCT080 13 -5 28% 75.82 0.0
09 17:15 NW 19 G 39 16.09 Partly Cloudy SCT080 12 -6 28% 75.79 0.0
09 16:56 NW 20 G 30 16.09 Partly Cloudy SCT080 13 -6 26% 75.79 0.0
09 16:35 NW 13 G 33 16.09 Fair CLR 12 -6 28% 75.79 0.0
09 16:15 NW 20 G 39 16.09 Partly Cloudy SCT070 14 -6 25% 75.77 0.0
09 15:55 NW 19 G 41 16.09 Partly Cloudy SCT070 13 -6 26% 75.77 0.0
09 15:35 NW 22 G 31 16.09 Partly Cloudy SCT070 13 -6 26% 75.77 0.0
09 15:15 NW 17 G 37 16.09 Fair CLR 12 -7 26% 75.74 0.0
09 14:55 NW 20 G 33 16.09 Fair CLR 13 -6 26% 75.74 0.0
09 14:36 NW 26 G 39 16.09 Partly Cloudy SCT070 13 -6 26% 75.74 0.0
09 14:15 NW 19 G 33 16.09 Partly Cloudy SCT060 12 -5 30% 75.72 0.0
09 13:55 NW 20 G 35 16.09 Partly Cloudy SCT060 12 -6 28% 75.72 0.0
09 13:35 NW 30 G 41 16.09 Partly Cloudy SCT060 12 -5 30% 75.72 0.0
09 13:15 N 15 G 35 16.09 Partly Cloudy SCT060 12 -5 30% 75.69 0.0
09 12:55 NW 15 G 35 16.09 Partly Cloudy SCT060 11 -5 32% 75.69 0.0
09 12:35 NW 15 G 30 16.09 Fair CLR 11 -5 32% 75.67 0.0
09 12:16 NW 19 G 30 16.09 Partly Cloudy SCT060 11 -5 32% 75.67 0.0
09 11:55 NW 22 G 35 16.09 Partly Cloudy SCT060 11 -5 32% 75.67 0.0
09 11:35 N 26 G 37 16.09 Fair CLR 11 -4 35% 75.64 0.0
09 11:15 NW 13 G 41 16.09 Fair CLR 10 -4 37% 8 75.64 0.0
09 10:35 N 24 G 37 16.09 Fair CLR 9 -5 37% 6 75.62 0.0
09 10:15 N 19 G 41 16.09 Fair CLR 9 -5 37% 7 75.59 0.0
09 09:55 N 22 G 33 16.09 Fair CLR 9 -6 34% 6 75.57 0.0
09 09:36 NW 26 G 37 16.09 Fair CLR 9 -6 34% 6 75.54 0.0
09 09:15 NW 17 G 37 16.09 Fair CLR 9 -6 34% 7 75.51 0.0
09 08:55 N 24 G 35 16.09 Fair CLR 9 -6 34% 6 75.51 0.0
09 08:35 N 20 G 39 16.09 Fair CLR 9 -6 34% 6 75.49 0.0
09 08:15 N 26 16.09 Fair CLR 8 -5 40% 5 75.46 0.0
09 07:55 NW 22 G 31 16.09 Fair CLR 8 -4 43% 5 75.44 0.0
09 07:35 N 13 G 35 16.09 Partly Cloudy SCT095 8 -2 50% 6 75.44 0.0
09 07:16 N 11 16.09 Mostly Cloudy BKN095 7 1 66% 5 75.41 0.0
09 06:55 N 15 16.09 Overcast OVC095 7 1 66% 5 75.39 0.0
09 06:35 NW 11 16.09 Mostly Cloudy BKN095 6 2 76% 4 75.36 0.0
09 06:15 NW 11 16.09 Mostly Cloudy BKN085 6 2 76% 4 75.31 0.0
09 05:55 NW 7 16.09 Overcast BKN075 OVC095 6 2 76% 5 75.31 0.0
09 05:35 W 7 16.09 Overcast SCT060 BKN075 OVC095 6 3 81% 5 75.29 0.0
09 05:15 W 6 16.09 Overcast SCT046 OVC060 7 3 76% 75.26 0.0
09 04:56 Calm 16.09 Light Rain BKN041 OVC048 7 3 76% 75.26 0.0
09 04:35 NW 6 16.09 Light Drizzle OVC039 7 3 76% 75.26 0.0
09 04:15 Calm 16.09 Overcast BKN036 OVC043 7 3 76% 75.23 0.0
09 03:55 Calm 16.09 Overcast OVC044 7 3 76% 75.23 0.0
09 03:35 N 13 16.09 Overcast OVC046 7 3 76% 5 75.21 0.0
09 03:15 Calm 16.09 Overcast OVC048 8 2 66% 75.18 0.0
09 02:55 Calm 16.09 Overcast BKN050 OVC060 8 2 66% 75.18 0.0
09 02:36 N 6 16.09 Overcast SCT060 OVC070 8 2 66% 75.21 0.0
09 02:15 Calm 16.09 Overcast BKN080 OVC090 8 2 66% 75.21 0.0
09 01:55 N 7 16.09 Overcast SCT041 OVC090 8 2 66% 7 75.23 0.0
09 01:35 N 15 16.09 Rain BKN041 BKN050 OVC060 9 2 62% 7 75.23 0.0
09 01:15 N 9 16.09 Light Drizzle BKN065 BKN070 9 0 54% 8 75.23 0.0
09 00:55 NW 9 16.09 Mostly Cloudy SCT050 BKN065 BKN070 10 -1 47% 9 75.26 0.0
09 00:35 NW 9 16.09 Light Rain SCT041 BKN065 OVC070 9 -2 46% 8 75.23 0.0
09 00:16 N 7 16.09 Mostly Cloudy SCT049 BKN065 BKN085 6 1 71% 5 75.23 0.0
08 23:55 Calm 16.09 Partly Cloudy SCT085 6 -1 61% 75.18 0.0
08 23:35 Calm 16.09 Fair CLR 6 -1 61% 75.16 0.0
08 23:15 Calm 16.09 Fair CLR 4 -1 70% 75.16 0.0
08 22:55 Calm 16.09 Fair CLR 5 -1 66% 75.16 0.0
08 22:35 Calm 16.09 Fair CLR 5 0 70% 75.18 0.0
08 22:16 Calm 16.09 Fair CLR 5 -2 61% 75.18 0.0
08 21:55 Calm 16.09 Fair CLR 6 -3 53% 75.18 0.0
08 21:35 Calm 16.09 Fair CLR 10 -5 35% 75.18 0.0
08 21:15 NW 6 16.09 Fair CLR 12 -5 30% 75.18 0.0
08 20:55 NW 9 16.09 Fair CLR 12 -5 30% 75.18 0.0
08 20:35 NW 13 G 28 16.09 Fair CLR 13 -5 28% 75.18 0.0
08 20:15 NW 15 16.09 Fair CLR 14 -4 29% 75.16 0.0
08 19:56 N 22 G 35 16.09 Fair CLR 15 -4 27% 75.13 0.0
08 19:35 NW 15 G 31 16.09 Fair CLR 16 -5 23% 75.11 0.0
08 19:15 W 17 G 30 16.09 Partly Cloudy SCT085 17 -5 22% 75.08 0.0
08 18:55 W 19 G 31 16.09 Partly Cloudy SCT085 18 -4 22% 75.08 0.0
08 18:35 NW 11 G 26 16.09 Partly Cloudy SCT095 18 -3 24% 75.06 0.0
08 18:15 NW 13 G 28 16.09 Partly Cloudy SCT095 18 -4 22% 75.06 0.0
08 17:55 W 13 G 31 16.09 Fair CLR 18 -6 19% 75.06 0.0
08 17:36 W 17 16.09 Partly Cloudy SCT095 19 -6 18% 75.06 0.0
08 17:15 W 13 G 26 16.09 Fair CLR 18 -6 19% 75.06 0.0
08 16:55 NW 15 16.09 Fair CLR 18 -6 19% 75.08 0.0
08 16:35 W 17 G 30 16.09 Fair CLR 18 -6 19% 75.08 0.0
08 16:15 W 19 G 37 16.09 Fair CLR 18 -6 19% 75.11 0.0
08 15:55 W 17 16.09 Fair CLR 18 -6 19% 75.13 0.0
08 15:35 SW 19 G 30 16.09 Partly Cloudy SCT095 18 -6 19% 75.16 0.0
08 15:16 W 19 G 28 16.09 Partly Cloudy SCT095 18 -6 19% 75.18 0.0
08 14:55 W 9 16.09 Fair CLR 18 -6 19% 75.18 0.0
08 14:35 W 17 16.09 Fair CLR 17 -6 20% 75.21 0.0
08 14:15 SW 22 G 37 16.09 Fair CLR 18 -6 19% 75.23 0.0
08 13:55 SW 11 G 28 16.09 Fair CLR 18 -7 18% 75.26 0.0
08 13:35 NW 11 G 30 16.09 Fair CLR 18 -7 18% 75.26 0.0
08 13:16 SW 11 16.09 Fair CLR 18 -6 19% 75.29 0.0
08 12:55 S 15 G 28 16.09 Fair CLR 17 -6 20% 75.31 0.0
08 12:35 SW 13 16.09 Fair CLR 17 -7 19% 75.34 0.0
08 12:15 W 9 16.09 Fair CLR 17 -7 19% 75.36 0.0
08 11:55 E 6 G 15 16.09 Fair CLR 16 -6 22% 75.36 0.0
08 11:35 W 6 16.09 Fair CLR 16 -7 20% 75.39 0.0
08 11:15 W 7 16.09 Fair CLR 15 -7 21% 75.41 0.0
08 10:56 W 13 16.09 Fair CLR 15 -7 21% 75.44 0.0
08 10:35 W 15 16.09 Fair CLR 14 -6 25% 75.44 0.0
08 10:15 Calm 16.09 Fair CLR 14 -6 25% 75.46 0.0
08 09:55 NW 6 16.09 Fair CLR 13 -4 31% 75.46 0.0
08 09:35 SW 6 16.09 Fair CLR 13 -3 33% 75.49 0.0
08 09:15 S 7 16.09 Fair CLR 11 -3 38% 75.49 0.0
08 08:55 SW 6 16.09 Fair CLR 11 -2 41% 75.51 0.0
08 08:36 S 7 16.09 Fair CLR 9 -2 46% 8 75.51 0.0
08 08:15 Calm 16.09 Fair CLR 8 1 62% 75.51 0.0
08 07:55 Calm 16.09 Fair CLR 4 0 75% 75.54 0.0
08 07:35 Calm 16.09 Fair CLR 1 -1 87% 75.54 0.0
08 07:15 Calm 16.09 Fair CLR -1 -2 93% 75.54 0.0
08 06:55 Calm 16.09 Fair CLR -3 -3 100% 75.57 0.0
08 06:35 Calm 16.09 Fair CLR -3 -3 100% 75.54 0.0
08 06:16 Calm 16.09 Fair CLR -4 -4 100% 75.54 0.0
08 05:55 Calm 16.09 Fair CLR -4 -4 100% 75.54 0.0
08 05:35 Calm 16.09 Fair CLR -4 -4 100% 75.54 0.0
08 05:15 Calm 16.09 Fair CLR -4 -4 100% 75.54 0.0
08 04:55 Calm 16.09 Fair CLR -4 -4 100% 75.57 0.0
08 04:35 Calm 16.09 Fair CLR -3 -3 100% 75.57 0.0
08 04:15 Calm 16.09 Fair CLR -3 -4 93% 75.57 0.0
08 03:56 Calm 16.09 Fair CLR -3 -3 100% 75.57 0.0
08 03:35 Calm 16.09 Fair CLR -3 -3 100% 75.59 0.0
08 03:15 Calm 16.09 Fair CLR -3 -3 100% 75.59 0.0
08 02:55 Calm 16.09 Fair CLR -3 -4 93% 75.59 0.0
08 02:35 Calm 16.09 Fair CLR -3 -3 100% 75.62 0.0
08 02:15 Calm 16.09 Fair CLR -3 -3 100% 75.62 0.0
08 01:55 Calm 16.09 Fair CLR -2 -3 93% 75.62 0.0
08 01:35 Calm 16.09 Fair CLR -2 -2 100% 75.64 0.0
08 01:16 Calm 16.09 Fair CLR -2 -3 93% 75.64 0.0
08 00:55 Calm 16.09 Fair CLR -2 -2 100% 75.64 0.0
08 00:35 Calm 16.09 Fair CLR -2 -3 93% 75.67 0.0
08 00:15 Calm 16.09 Fair CLR -1 -2 93% 75.67 0.0
07 23:55 Calm 16.09 Fair CLR -2 -3 93% 75.69 0.0
07 23:35 Calm 16.09 Fair CLR -2 -3 93% 75.69 0.0
07 23:15 Calm 16.09 Fair CLR 0 -4 75% 75.69 0.0
07 22:56 Calm 16.09 Fair CLR -1 -3 86% 75.67 0.0
07 22:35 Calm 16.09 Fair CLR 1 -1 87% 75.67 0.0
07 22:15 Calm 16.09 Fair CLR 1 -3 75% 75.67 0.0
07 21:55 Calm 11.27 Fair CLR 2 -2 75% 75.67 0.0
07 21:35 Calm 16.09 Fair CLR 2 -2 75% 75.67 0.0
07 21:15 Calm 11.27 Fair CLR 3 -3 65% 75.64 0.0
07 20:55 Calm 16.09 Fair CLR 6 -6 42% 75.64 0.0
07 20:36 Calm 16.09 Fair CLR 8 -6 37% 75.62 0.0
07 20:15 N 6 16.09 Fair CLR 9 -7 32% 75.62 0.0
07 19:55 N 6 16.09 Partly Cloudy SCT095 11 -7 28% 75.59 0.0
07 19:35 N 11 16.09 Partly Cloudy SCT085 11 -7 28% 75.59 0.0
07 19:15 N 9 16.09 Partly Cloudy SCT085 12 -8 24% 75.59 0.0
07 18:55 W 11 16.09 Partly Cloudy SCT085 13 -8 23% 75.59 0.0
07 18:35 W 11 16.09 Partly Cloudy SCT085 12 -8 24% 75.59 0.0
07 18:16 NW 11 16.09 Partly Cloudy SCT085 12 -8 24% 75.59 0.0
07 17:55 NW 15 16.09 Partly Cloudy SCT085 12 -7 26% 75.59 0.0
07 17:35 NW 15 G 31 16.09 Partly Cloudy SCT085 12 -8 24% 75.62 0.0
07 17:15 W 13 16.09 Partly Cloudy SCT085 12 -8 24% 75.62 0.0
07 16:55 NW 17 G 30 16.09 Fair CLR 12 -8 24% 75.62 0.0
07 16:35 W 17 G 28 16.09 Fair CLR 12 -8 24% 75.64 0.0
07 16:15 W 11 16.09 Partly Cloudy SCT075 12 -7 26% 75.64 0.0
07 15:56 W 13 16.09 Fair CLR 12 -7 26% 75.67 0.0
07 15:35 W 11 G 30 16.09 Partly Cloudy SCT075 12 -6 28% 75.67 0.0
07 15:15 NW 15 G 26 16.09 Partly Cloudy SCT075 11 -7 28% 75.67 0.0
07 14:55 NW 13 G 26 16.09 Fair CLR 12 -7 26% 75.69 0.0
07 14:35 W 13 G 30 16.09 Partly Cloudy SCT065 11 -7 28% 75.69 0.0
07 14:15 W 17 16.09 Partly Cloudy SCT065 11 -7 28% 75.69 0.0
07 13:55 W 15 G 30 16.09 Partly Cloudy SCT065 11 -7 28% 75.72 0.0
07 13:36 W 13 G 26 16.09 Partly Cloudy SCT065 11 -7 28% 75.72 0.0
07 13:15 W 11 16.09 Partly Cloudy SCT065 11 -7 28% 75.72 0.0
07 12:55 W 17 16.09 Partly Cloudy SCT065 10 -7 30% 8 75.74 0.0
07 12:35 W 15 G 35 16.09 Partly Cloudy SCT065 9 -7 32% 7 75.77 0.0
07 12:15 W 17 G 26 16.09 Partly Cloudy SCT065 10 -7 30% 8 75.77 0.0
07 11:55 W 13 16.09 Partly Cloudy SCT065 10 -7 30% 8 75.79 0.0
07 11:35 SW 15 16.09 Fair CLR 10 -6 32% 8 75.79 0.0
Date Time (cdt) Wind (kph) Vis. (km) Weather Sky Cond. Air Dwpt Max. Min. Relative Humidity Wind Chill (°C) Heat Index (°C) altimeter (cm) sea level (mb) 1 hr 3 hr 6 hr
6 hour
Temperature (ºC) Pressure Precipitation (cm)